Piedmont, California
Current Conditions -  °F | °C
As of 5:53 PM on Thursday 18 Dec 2014 (Local Time) from KOAK Reporting Station
Overcast Overcast  
Wind Chill: 13°   Ceiling: 4900
Heat Index: 13°   Visibility: 10mi
Dew Point: 10°   Wind: 3mph
Humidity: 83%   Direction: 70°ENE
Pressure: 30.14"   Gusts: NA
Location:  37.82°N, 122.23°W
Report Text: KOAK 190153Z 07003KT 10SM FEW020 BKN049 OVC180 13/10 A3014 RMK AO2 SLP207 T01280100
Loading
Personal Weather Stations






























Interactive Weather Map New forecast layout! Learn more

10-Day Weather Forecast

Advertisements
Track Severe Weather on mobile